sensor_id;sensor_type;location;lat;lon;timestamp;pressure;altitude;pressure_sealevel;temperature;humidity
20156;BME280;10238;49.556;10.956;2023-03-13T00:02:19;97847.38;;;6.65;100.00
20156;BME280;10238;49.556;10.956;2023-03-13T00:05:09;97837.09;;;6.62;100.00
20156;BME280;10238;49.556;10.956;2023-03-13T00:07:57;97827.09;;;6.56;100.00
20156;BME280;10238;49.556;10.956;2023-03-13T00:10:45;97831.00;;;6.52;100.00
20156;BME280;10238;49.556;10.956;2023-03-13T00:13:33;97827.81;;;6.49;100.00
20156;BME280;10238;49.556;10.956;2023-03-13T00:16:22;97817.41;;;6.47;100.00
20156;BME280;10238;49.556;10.956;2023-03-13T00:19:10;97820.34;;;6.44;100.00
20156;BME280;10238;49.556;10.956;2023-03-13T00:21:59;97822.00;;;6.45;100.00
20156;BME280;10238;49.556;10.956;2023-03-13T00:24:47;97814.34;;;6.42;100.00
20156;BME280;10238;49.556;10.956;2023-03-13T00:27:35;97812.13;;;6.38;100.00
20156;BME280;10238;49.556;10.956;2023-03-13T00:30:23;97814.91;;;6.36;100.00
20156;BME280;10238;49.556;10.956;2023-03-13T00:33:11;97815.47;;;6.30;100.00
20156;BME280;10238;49.556;10.956;2023-03-13T00:36:00;97806.88;;;6.28;100.00
20156;BME280;10238;49.556;10.956;2023-03-13T00:38:50;97806.47;;;6.23;100.00
20156;BME280;10238;49.556;10.956;2023-03-13T00:41:38;97809.38;;;6.20;100.00
20156;BME280;10238;49.556;10.956;2023-03-13T00:44:26;97815.66;;;6.19;100.00
20156;BME280;10238;49.556;10.956;2023-03-13T00:47:14;97814.94;;;6.17;100.00
20156;BME280;10238;49.556;10.956;2023-03-13T00:50:01;97814.28;;;6.15;100.00
20156;BME280;10238;49.556;10.956;2023-03-13T00:52:49;97818.56;;;6.16;100.00
20156;BME280;10238;49.556;10.956;2023-03-13T00:55:39;97810.66;;;6.16;100.00
20156;BME280;10238;49.556;10.956;2023-03-13T00:58:39;97811.03;;;6.21;100.00
20156;BME280;10238;49.556;10.956;2023-03-13T01:01:29;97805.75;;;6.21;100.00
20156;BME280;10238;49.556;10.956;2023-03-13T01:04:17;97804.63;;;6.33;100.00
20156;BME280;10238;49.556;10.956;2023-03-13T01:07:05;97793.00;;;6.36;100.00
20156;BME280;10238;49.556;10.956;2023-03-13T01:09:53;97788.66;;;6.44;100.00
20156;BME280;10238;49.556;10.956;2023-03-13T01:12:43;97793.22;;;6.42;100.00
20156;BME280;10238;49.556;10.956;2023-03-13T01:15:34;97798.38;;;6.44;100.00
20156;BME280;10238;49.556;10.956;2023-03-13T01:18:22;97783.22;;;6.46;100.00
20156;BME280;10238;49.556;10.956;2023-03-13T01:21:11;97780.16;;;6.50;100.00
20156;BME280;10238;49.556;10.956;2023-03-13T01:23:59;97772.63;;;6.55;100.00
20156;BME280;10238;49.556;10.956;2023-03-13T01:26:47;97771.78;;;6.55;100.00
20156;BME280;10238;49.556;10.956;2023-03-13T01:29:36;97770.41;;;6.51;100.00
20156;BME280;10238;49.556;10.956;2023-03-13T01:32:24;97754.06;;;6.47;100.00
20156;BME280;10238;49.556;10.956;2023-03-13T01:35:12;97755.72;;;6.48;100.00
20156;BME280;10238;49.556;10.956;2023-03-13T01:38:00;97743.22;;;6.50;100.00
20156;BME280;10238;49.556;10.956;2023-03-13T01:40:48;97742.38;;;6.50;100.00
20156;BME280;10238;49.556;10.956;2023-03-13T01:43:37;97737.22;;;6.48;100.00
20156;BME280;10238;49.556;10.956;2023-03-13T01:46:27;97746.41;;;6.44;100.00
20156;BME280;10238;49.556;10.956;2023-03-13T01:49:18;97737.09;;;6.40;100.00
20156;BME280;10238;49.556;10.956;2023-03-13T01:52:12;97743.78;;;6.44;100.00
20156;BME280;10238;49.556;10.956;2023-03-13T01:55:05;97736.25;;;6.49;100.00
20156;BME280;10238;49.556;10.956;2023-03-13T01:57:54;97730.28;;;6.47;100.00
20156;BME280;10238;49.556;10.956;2023-03-13T02:00:42;97724.31;;;6.45;100.00
20156;BME280;10238;49.556;10.956;2023-03-13T02:03:35;97729.31;;;6.48;100.00
20156;BME280;10238;49.556;10.956;2023-03-13T02:06:24;97725.16;;;6.46;100.00
20156;BME280;10238;49.556;10.956;2023-03-13T02:09:17;97732.09;;;6.47;100.00
20156;BME280;10238;49.556;10.956;2023-03-13T02:12:10;97726.53;;;6.50;100.00
20156;BME280;10238;49.556;10.956;2023-03-13T02:15:03;97715.13;;;6.49;100.00
20156;BME280;10238;49.556;10.956;2023-03-13T02:17:53;97704.72;;;6.48;100.00
20156;BME280;10238;49.556;10.956;2023-03-13T02:20:44;97701.25;;;6.47;100.00
20156;BME280;10238;49.556;10.956;2023-03-13T02:23:35;97697.63;;;6.48;100.00
20156;BME280;10238;49.556;10.956;2023-03-13T02:26:27;97701.78;;;6.51;100.00
20156;BME280;10238;49.556;10.956;2023-03-13T02:29:15;97694.84;;;6.50;100.00
20156;BME280;10238;49.556;10.956;2023-03-13T02:32:05;97692.34;;;6.48;100.00
20156;BME280;10238;49.556;10.956;2023-03-13T02:34:57;97690.78;;;6.55;100.00
20156;BME280;10238;49.556;10.956;2023-03-13T02:37:51;97686.06;;;6.59;100.00
20156;BME280;10238;49.556;10.956;2023-03-13T02:40:43;97683.41;;;6.59;100.00
20156;BME280;10238;49.556;10.956;2023-03-13T02:43:35;97685.06;;;6.60;100.00
20156;BME280;10238;49.556;10.956;2023-03-13T02:46:23;97680.91;;;6.57;100.00
20156;BME280;10238;49.556;10.956;2023-03-13T02:49:19;97672.72;;;6.60;100.00
20156;BME280;10238;49.556;10.956;2023-03-13T02:52:13;97670.06;;;6.60;100.00
20156;BME280;10238;49.556;10.956;2023-03-13T02:55:06;97668.09;;;6.62;100.00
20156;BME280;10238;49.556;10.956;2023-03-13T02:57:57;97678.94;;;6.59;100.00
20156;BME280;10238;49.556;10.956;2023-03-13T03:00:46;97672.84;;;6.59;100.00
20156;BME280;10238;49.556;10.956;2023-03-13T03:03:35;97665.09;;;6.57;100.00
20156;BME280;10238;49.556;10.956;2023-03-13T03:06:23;97661.16;;;6.61;100.00
20156;BME280;10238;49.556;10.956;2023-03-13T03:09:11;97644.63;;;6.59;100.00
20156;BME280;10238;49.556;10.956;2023-03-13T03:11:59;97648.66;;;6.63;100.00
20156;BME280;10238;49.556;10.956;2023-03-13T03:14:47;97642.94;;;6.68;100.00
20156;BME280;10238;49.556;10.956;2023-03-13T03:17:36;97646.34;;;6.78;100.00
20156;BME280;10238;49.556;10.956;2023-03-13T03:20:24;97639.63;;;6.84;100.00
20156;BME280;10238;49.556;10.956;2023-03-13T03:23:12;97643.25;;;6.83;100.00
20156;BME280;10238;49.556;10.956;2023-03-13T03:26:00;97646.56;;;6.85;100.00
20156;BME280;10238;49.556;10.956;2023-03-13T03:28:48;97635.69;;;6.88;100.00
20156;BME280;10238;49.556;10.956;2023-03-13T03:31:36;97629.06;;;6.84;100.00
20156;BME280;10238;49.556;10.956;2023-03-13T03:34:26;97632.41;;;6.86;100.00
20156;BME280;10238;49.556;10.956;2023-03-13T03:37:14;97630.72;;;6.85;100.00
20156;BME280;10238;49.556;10.956;2023-03-13T03:40:01;97627.09;;;6.86;100.00
20156;BME280;10238;49.556;10.956;2023-03-13T03:42:51;97629.31;;;6.90;100.00
20156;BME280;10238;49.556;10.956;2023-03-13T03:45:38;97614.38;;;6.99;100.00
20156;BME280;10238;49.556;10.956;2023-03-13T03:48:27;97618.66;;;7.00;100.00
20156;BME280;10238;49.556;10.956;2023-03-13T03:51:16;97609.75;;;7.01;100.00
20156;BME280;10238;49.556;10.956;2023-03-13T03:54:04;97604.59;;;6.99;100.00
20156;BME280;10238;49.556;10.956;2023-03-13T03:56:52;97598.81;;;6.96;100.00
20156;BME280;10238;49.556;10.956;2023-03-13T03:59:40;97599.78;;;6.95;100.00
20156;BME280;10238;49.556;10.956;2023-03-13T04:02:28;97597.97;;;6.95;100.00
20156;BME280;10238;49.556;10.956;2023-03-13T04:05:16;97592.69;;;6.95;100.00
20156;BME280;10238;49.556;10.956;2023-03-13T04:08:06;97583.91;;;6.95;100.00
20156;BME280;10238;49.556;10.956;2023-03-13T04:10:54;97591.19;;;6.93;100.00
20156;BME280;10238;49.556;10.956;2023-03-13T04:13:42;97590.19;;;6.94;100.00
20156;BME280;10238;49.556;10.956;2023-03-13T04:16:30;97576.28;;;6.92;100.00
20156;BME280;10238;49.556;10.956;2023-03-13T04:19:18;97568.69;;;6.89;100.00
20156;BME280;10238;49.556;10.956;2023-03-13T04:22:06;97563.28;;;6.90;100.00
20156;BME280;10238;49.556;10.956;2023-03-13T04:24:55;97554.66;;;6.88;100.00
20156;BME280;10238;49.556;10.956;2023-03-13T04:27:43;97557.28;;;6.88;100.00
20156;BME280;10238;49.556;10.956;2023-03-13T04:30:31;97539.66;;;6.89;100.00
20156;BME280;10238;49.556;10.956;2023-03-13T04:33:19;97549.38;;;6.88;100.00
20156;BME280;10238;49.556;10.956;2023-03-13T04:36:08;97543.94;;;6.90;100.00
20156;BME280;10238;49.556;10.956;2023-03-13T04:38:56;97530.44;;;6.93;100.00
20156;BME280;10238;49.556;10.956;2023-03-13T04:41:45;97543.63;;;6.93;100.00
20156;BME280;10238;49.556;10.956;2023-03-13T04:44:33;97548.53;;;6.88;100.00
20156;BME280;10238;49.556;10.956;2023-03-13T04:47:21;97538.19;;;6.94;100.00
20156;BME280;10238;49.556;10.956;2023-03-13T04:50:10;97538.72;;;6.98;100.00
20156;BME280;10238;49.556;10.956;2023-03-13T04:52:57;97540.75;;;7.04;100.00
20156;BME280;10238;49.556;10.956;2023-03-13T04:55:45;97546.56;;;7.07;100.00
20156;BME280;10238;49.556;10.956;2023-03-13T04:58:35;97546.25;;;7.10;100.00
20156;BME280;10238;49.556;10.956;2023-03-13T05:01:22;97555.63;;;7.05;100.00
20156;BME280;10238;49.556;10.956;2023-03-13T05:04:11;97539.94;;;7.03;100.00
20156;BME280;10238;49.556;10.956;2023-03-13T05:06:59;97536.59;;;7.01;100.00
20156;BME280;10238;49.556;10.956;2023-03-13T05:09:47;97535.47;;;7.04;100.00
20156;BME280;10238;49.556;10.956;2023-03-13T05:12:35;97533.50;;;7.06;100.00
20156;BME280;10238;49.556;10.956;2023-03-13T05:15:24;97531.84;;;7.05;100.00
20156;BME280;10238;49.556;10.956;2023-03-13T05:18:12;97520.97;;;7.08;100.00
20156;BME280;10238;49.556;10.956;2023-03-13T05:21:00;97529.56;;;7.10;100.00
20156;BME280;10238;49.556;10.956;2023-03-13T05:23:48;97510.06;;;7.11;100.00
20156;BME280;10238;49.556;10.956;2023-03-13T05:26:36;97507.81;;;7.16;100.00
20156;BME280;10238;49.556;10.956;2023-03-13T05:29:24;97505.03;;;7.17;100.00
20156;BME280;10238;49.556;10.956;2023-03-13T05:32:13;97508.34;;;7.19;100.00
20156;BME280;10238;49.556;10.956;2023-03-13T05:35:01;97508.50;;;7.18;100.00
20156;BME280;10238;49.556;10.956;2023-03-13T05:37:50;97510.47;;;7.16;100.00
20156;BME280;10238;49.556;10.956;2023-03-13T05:40:37;97503.38;;;7.16;100.00
20156;BME280;10238;49.556;10.956;2023-03-13T05:43:25;97503.38;;;7.16;100.00
20156;BME280;10238;49.556;10.956;2023-03-13T05:46:13;97492.28;;;7.13;100.00
20156;BME280;10238;49.556;10.956;2023-03-13T05:49:02;97489.09;;;7.09;100.00
20156;BME280;10238;49.556;10.956;2023-03-13T05:51:50;97484.00;;;7.08;100.00
20156;BME280;10238;49.556;10.956;2023-03-13T05:54:38;97490.94;;;7.09;100.00
20156;BME280;10238;49.556;10.956;2023-03-13T05:57:26;97482.00;;;7.10;100.00
20156;BME280;10238;49.556;10.956;2023-03-13T06:00:15;97489.94;;;7.10;100.00
20156;BME280;10238;49.556;10.956;2023-03-13T06:03:03;97482.84;;;7.10;100.00
20156;BME280;10238;49.556;10.956;2023-03-13T06:05:58;97488.44;;;7.07;100.00
20156;BME280;10238;49.556;10.956;2023-03-13T06:08:46;97487.25;;;7.02;100.00
20156;BME280;10238;49.556;10.956;2023-03-13T06:11:37;97477.03;;;7.07;100.00
20156;BME280;10238;49.556;10.956;2023-03-13T06:14:25;97477.03;;;7.07;100.00
20156;BME280;10238;49.556;10.956;2023-03-13T06:17:12;97474.91;;;7.10;100.00
20156;BME280;10238;49.556;10.956;2023-03-13T06:20:00;97473.47;;;7.16;100.00
20156;BME280;10238;49.556;10.956;2023-03-13T06:22:50;97470.81;;;7.16;100.00
20156;BME280;10238;49.556;10.956;2023-03-13T06:25:38;97475.69;;;7.28;100.00
20156;BME280;10238;49.556;10.956;2023-03-13T06:28:26;97481.03;;;7.36;100.00
20156;BME280;10238;49.556;10.956;2023-03-13T06:31:14;97476.47;;;7.46;100.00
20156;BME280;10238;49.556;10.956;2023-03-13T06:34:02;97476.50;;;7.54;100.00
20156;BME280;10238;49.556;10.956;2023-03-13T06:36:50;97467.78;;;7.62;100.00
20156;BME280;10238;49.556;10.956;2023-03-13T06:39:40;97467.28;;;7.66;100.00
20156;BME280;10238;49.556;10.956;2023-03-13T06:42:27;97461.53;;;7.71;100.00
20156;BME280;10238;49.556;10.956;2023-03-13T06:45:15;97443.06;;;7.79;100.00
20156;BME280;10238;49.556;10.956;2023-03-13T06:48:03;97447.03;;;7.83;100.00
20156;BME280;10238;49.556;10.956;2023-03-13T06:50:51;97449.38;;;7.86;100.00
20156;BME280;10238;49.556;10.956;2023-03-13T06:53:42;97445.41;;;7.90;100.00
20156;BME280;10238;49.556;10.956;2023-03-13T06:56:31;97448.25;;;7.96;100.00
20156;BME280;10238;49.556;10.956;2023-03-13T06:59:19;97449.75;;;7.99;100.00
20156;BME280;10238;49.556;10.956;2023-03-13T07:02:09;97448.44;;;8.03;100.00
20156;BME280;10238;49.556;10.956;2023-03-13T07:04:57;97442.84;;;8.14;100.00
20156;BME280;10238;49.556;10.956;2023-03-13T07:07:45;97445.66;;;8.12;100.00
20156;BME280;10238;49.556;10.956;2023-03-13T07:10:33;97445.88;;;8.27;100.00
20156;BME280;10238;49.556;10.956;2023-03-13T07:13:22;97439.75;;;8.26;100.00
20156;BME280;10238;49.556;10.956;2023-03-13T07:16:11;97446.56;;;8.29;100.00
20156;BME280;10238;49.556;10.956;2023-03-13T07:19:00;97451.84;;;8.37;100.00
20156;BME280;10238;49.556;10.956;2023-03-13T07:21:47;97452.34;;;8.32;100.00
20156;BME280;10238;49.556;10.956;2023-03-13T07:24:35;97450.88;;;8.46;100.00
20156;BME280;10238;49.556;10.956;2023-03-13T07:27:24;97450.41;;;8.50;100.00
20156;BME280;10238;49.556;10.956;2023-03-13T07:30:13;97445.59;;;8.62;100.00
20156;BME280;10238;49.556;10.956;2023-03-13T07:33:02;97451.56;;;8.72;100.00
20156;BME280;10238;49.556;10.956;2023-03-13T07:35:50;97441.31;;;8.77;100.00
20156;BME280;10238;49.556;10.956;2023-03-13T07:38:39;97437.63;;;8.86;100.00
20156;BME280;10238;49.556;10.956;2023-03-13T07:41:28;97449.72;;;8.97;100.00
20156;BME280;10238;49.556;10.956;2023-03-13T07:44:16;97438.28;;;9.04;100.00
20156;BME280;10238;49.556;10.956;2023-03-13T07:47:06;97429.84;;;9.09;100.00
20156;BME280;10238;49.556;10.956;2023-03-13T07:49:54;97436.63;;;9.19;100.00
20156;BME280;10238;49.556;10.956;2023-03-13T07:52:42;97423.38;;;9.19;100.00
20156;BME280;10238;49.556;10.956;2023-03-13T07:55:30;97417.69;;;9.30;100.00
20156;BME280;10238;49.556;10.956;2023-03-13T07:58:19;97417.34;;;9.41;100.00
20156;BME280;10238;49.556;10.956;2023-03-13T08:01:11;97408.38;;;9.50;100.00
20156;BME280;10238;49.556;10.956;2023-03-13T08:04:02;97389.09;;;9.56;100.00
20156;BME280;10238;49.556;10.956;2023-03-13T08:06:51;97404.84;;;9.58;100.00
20156;BME280;10238;49.556;10.956;2023-03-13T08:09:40;97395.41;;;9.55;100.00
20156;BME280;10238;49.556;10.956;2023-03-13T08:12:27;97409.00;;;9.60;100.00
20156;BME280;10238;49.556;10.956;2023-03-13T08:15:15;97411.94;;;9.65;100.00
20156;BME280;10238;49.556;10.956;2023-03-13T08:18:07;97418.94;;;9.66;100.00
20156;BME280;10238;49.556;10.956;2023-03-13T08:21:00;97414.78;;;9.64;100.00
20156;BME280;10238;49.556;10.956;2023-03-13T08:23:52;97409.88;;;9.83;100.00
20156;BME280;10238;49.556;10.956;2023-03-13T08:26:41;97400.91;;;9.92;100.00
20156;BME280;10238;49.556;10.956;2023-03-13T08:29:29;97405.19;;;9.93;100.00
20156;BME280;10238;49.556;10.956;2023-03-13T08:32:17;97402.19;;;9.96;100.00
20156;BME280;10238;49.556;10.956;2023-03-13T08:35:06;97394.72;;;10.00;100.00
20156;BME280;10238;49.556;10.956;2023-03-13T08:37:55;97397.66;;;10.05;100.00
20156;BME280;10238;49.556;10.956;2023-03-13T08:40:43;97396.16;;;10.10;100.00
20156;BME280;10238;49.556;10.956;2023-03-13T08:43:31;97393.16;;;10.13;100.00
20156;BME280;10238;49.556;10.956;2023-03-13T08:46:19;97396.09;;;10.26;100.00
20156;BME280;10238;49.556;10.956;2023-03-13T08:49:08;97379.59;;;10.31;100.00
20156;BME280;10238;49.556;10.956;2023-03-13T08:51:56;97383.22;;;10.38;100.00
20156;BME280;10238;49.556;10.956;2023-03-13T08:54:47;97382.91;;;10.55;100.00
20156;BME280;10238;49.556;10.956;2023-03-13T08:57:35;97389.88;;;10.56;100.00
20156;BME280;10238;49.556;10.956;2023-03-13T09:00:23;97381.03;;;10.64;100.00
20156;BME280;10238;49.556;10.956;2023-03-13T09:03:11;97382.25;;;10.76;100.00
20156;BME280;10238;49.556;10.956;2023-03-13T09:06:00;97380.69;;;10.81;100.00
20156;BME280;10238;49.556;10.956;2023-03-13T09:08:48;97383.75;;;10.93;100.00
20156;BME280;10238;49.556;10.956;2023-03-13T09:11:38;97374.31;;;10.90;100.00
20156;BME280;10238;49.556;10.956;2023-03-13T09:14:26;97366.44;;;11.12;100.00
20156;BME280;10238;49.556;10.956;2023-03-13T09:17:14;97362.03;;;11.19;100.00
20156;BME280;10238;49.556;10.956;2023-03-13T09:20:02;97358.47;;;11.41;100.00
20156;BME280;10238;49.556;10.956;2023-03-13T09:22:50;97362.13;;;11.40;100.00
20156;BME280;10238;49.556;10.956;2023-03-13T09:25:38;97369.66;;;11.51;100.00
20156;BME280;10238;49.556;10.956;2023-03-13T09:28:28;97355.00;;;11.69;100.00
20156;BME280;10238;49.556;10.956;2023-03-13T09:31:17;97353.53;;;11.67;100.00
20156;BME280;10238;49.556;10.956;2023-03-13T09:34:05;97354.97;;;11.84;100.00
20156;BME280;10238;49.556;10.956;2023-03-13T09:36:53;97350.97;;;12.09;100.00
20156;BME280;10238;49.556;10.956;2023-03-13T09:39:41;97346.78;;;12.21;100.00
20156;BME280;10238;49.556;10.956;2023-03-13T09:42:38;97339.19;;;12.18;100.00
20156;BME280;10238;49.556;10.956;2023-03-13T09:45:34;97343.72;;;12.45;100.00
20156;BME280;10238;49.556;10.956;2023-03-13T09:48:30;97337.00;;;12.49;100.00
20156;BME280;10238;49.556;10.956;2023-03-13T09:51:24;97331.00;;;12.68;100.00
20156;BME280;10238;49.556;10.956;2023-03-13T09:54:21;97334.81;;;13.01;100.00
20156;BME280;10238;49.556;10.956;2023-03-13T09:57:17;97321.94;;;13.11;100.00
20156;BME280;10238;49.556;10.956;2023-03-13T10:00:09;97329.59;;;13.21;100.00
20156;BME280;10238;49.556;10.956;2023-03-13T10:03:06;97336.88;;;13.33;100.00
20156;BME280;10238;49.556;10.956;2023-03-13T10:06:03;97324.59;;;13.45;100.00
20156;BME280;10238;49.556;10.956;2023-03-13T10:08:53;97323.78;;;13.51;100.00
20156;BME280;10238;49.556;10.956;2023-03-13T10:11:45;97319.72;;;13.55;100.00
20156;BME280;10238;49.556;10.956;2023-03-13T10:14:41;97328.19;;;13.65;100.00
20156;BME280;10238;49.556;10.956;2023-03-13T10:17:34;97329.69;;;13.74;100.00
20156;BME280;10238;49.556;10.956;2023-03-13T10:20:24;97332.94;;;13.76;100.00
20156;BME280;10238;49.556;10.956;2023-03-13T10:23:17;97330.28;;;13.76;100.00
20156;BME280;10238;49.556;10.956;2023-03-13T10:26:08;97330.91;;;13.78;100.00
20156;BME280;10238;49.556;10.956;2023-03-13T10:29:10;97321.06;;;13.85;100.00
20156;BME280;10238;49.556;10.956;2023-03-13T10:32:05;97321.72;;;13.87;100.00
20156;BME280;10238;49.556;10.956;2023-03-13T10:34:56;97331.94;;;13.77;100.00
20156;BME280;10238;49.556;10.956;2023-03-13T10:37:46;97320.03;;;13.80;100.00
20156;BME280;10238;49.556;10.956;2023-03-13T10:40:34;97326.63;;;13.77;100.00
20156;BME280;10238;49.556;10.956;2023-03-13T10:43:22;97321.88;;;13.79;100.00
20156;BME280;10238;49.556;10.956;2023-03-13T10:46:12;97325.97;;;13.82;100.00
20156;BME280;10238;49.556;10.956;2023-03-13T10:49:15;97330.53;;;13.81;100.00
20156;BME280;10238;49.556;10.956;2023-03-13T10:52:03;97324.78;;;13.84;100.00
20156;BME280;10238;49.556;10.956;2023-03-13T10:54:59;97319.41;;;13.78;100.00
20156;BME280;10238;49.556;10.956;2023-03-13T10:57:56;97324.97;;;13.83;100.00
20156;BME280;10238;49.556;10.956;2023-03-13T11:00:45;97332.56;;;13.79;100.00
20156;BME280;10238;49.556;10.956;2023-03-13T11:03:33;97323.09;;;13.77;100.00
20156;BME280;10238;49.556;10.956;2023-03-13T11:06:27;97316.38;;;13.87;100.00
20156;BME280;10238;49.556;10.956;2023-03-13T11:09:16;97299.75;;;13.92;100.00
20156;BME280;10238;49.556;10.956;2023-03-13T11:12:10;97293.59;;;14.04;100.00
20156;BME280;10238;49.556;10.956;2023-03-13T11:15:02;97281.47;;;14.08;100.00
20156;BME280;10238;49.556;10.956;2023-03-13T11:17:58;97278.81;;;14.21;100.00
20156;BME280;10238;49.556;10.956;2023-03-13T11:20:48;97275.19;;;14.35;100.00
20156;BME280;10238;49.556;10.956;2023-03-13T11:23:40;97280.53;;;14.48;100.00
20156;BME280;10238;49.556;10.956;2023-03-13T11:26:33;97270.25;;;14.58;100.00
20156;BME280;10238;49.556;10.956;2023-03-13T11:29:25;97270.66;;;14.68;100.00
20156;BME280;10238;49.556;10.956;2023-03-13T11:32:21;97270.66;;;14.68;100.00
20156;BME280;10238;49.556;10.956;2023-03-13T11:35:19;97267.78;;;14.76;100.00
20156;BME280;10238;49.556;10.956;2023-03-13T11:38:16;97271.69;;;14.80;100.00
20156;BME280;10238;49.556;10.956;2023-03-13T11:41:19;97272.69;;;14.86;100.00
20156;BME280;10238;49.556;10.956;2023-03-13T11:44:22;97271.88;;;14.92;100.00
20156;BME280;10238;49.556;10.956;2023-03-13T11:47:31;97267.34;;;14.92;100.00
20156;BME280;10238;49.556;10.956;2023-03-13T11:50:28;97271.03;;;14.91;100.00
20156;BME280;10238;49.556;10.956;2023-03-13T11:53:44;97272.50;;;14.94;100.00
20156;BME280;10238;49.556;10.956;2023-03-13T11:56:42;97261.97;;;14.99;100.00
20156;BME280;10238;49.556;10.956;2023-03-13T11:59:37;97264.47;;;14.94;100.00
20156;BME280;10238;49.556;10.956;2023-03-13T12:02:31;97258.28;;;15.00;100.00
20156;BME280;10238;49.556;10.956;2023-03-13T12:05:21;97248.75;;;15.10;100.00
20156;BME280;10238;49.556;10.956;2023-03-13T12:08:14;97237.03;;;15.11;100.00
20156;BME280;10238;49.556;10.956;2023-03-13T12:11:09;97239.69;;;15.18;100.00
20156;BME280;10238;49.556;10.956;2023-03-13T12:14:03;97219.44;;;15.42;100.00
20156;BME280;10238;49.556;10.956;2023-03-13T12:16:55;97208.09;;;15.53;100.00
20156;BME280;10238;49.556;10.956;2023-03-13T12:19:49;97204.50;;;15.65;100.00
20156;BME280;10238;49.556;10.956;2023-03-13T12:22:43;97192.06;;;15.77;100.00
20156;BME280;10238;49.556;10.956;2023-03-13T12:25:37;97184.94;;;15.96;100.00
20156;BME280;10238;49.556;10.956;2023-03-13T12:28:35;97178.50;;;16.03;100.00
20156;BME280;10238;49.556;10.956;2023-03-13T12:31:27;97170.16;;;15.87;100.00
20156;BME280;10238;49.556;10.956;2023-03-13T12:34:19;97169.19;;;16.06;100.00
20156;BME280;10238;49.556;10.956;2023-03-13T12:37:11;97162.81;;;16.31;100.00
20156;BME280;10238;49.556;10.956;2023-03-13T12:40:05;97142.75;;;16.58;100.00
20156;BME280;10238;49.556;10.956;2023-03-13T12:43:03;97129.72;;;16.62;100.00
20156;BME280;10238;49.556;10.956;2023-03-13T12:46:14;97127.50;;;16.95;100.00
20156;BME280;10238;49.556;10.956;2023-03-13T12:49:32;97116.59;;;17.26;100.00
20156;BME280;10238;49.556;10.956;2023-03-13T12:52:47;97105.22;;;17.24;100.00
20156;BME280;10238;49.556;10.956;2023-03-13T12:56:11;97111.34;;;17.49;100.00
20156;BME280;10238;49.556;10.956;2023-03-13T12:59:08;97092.00;;;17.70;100.00
20156;BME280;10238;49.556;10.956;2023-03-13T13:01:58;97088.19;;;17.89;100.00
20156;BME280;10238;49.556;10.956;2023-03-13T13:04:50;97082.97;;;18.17;100.00
20156;BME280;10238;49.556;10.956;2023-03-13T13:07:51;97079.00;;;18.54;100.00
20156;BME280;10238;49.556;10.956;2023-03-13T13:10:39;97081.63;;;19.00;100.00
20156;BME280;10238;49.556;10.956;2023-03-13T13:13:30;97059.88;;;19.18;100.00
20156;BME280;10238;49.556;10.956;2023-03-13T13:16:19;97059.16;;;19.23;100.00
20156;BME280;10238;49.556;10.956;2023-03-13T13:19:44;97047.06;;;18.58;100.00
20156;BME280;10238;49.556;10.956;2023-03-13T13:22:47;97039.56;;;18.71;100.00
20156;BME280;10238;49.556;10.956;2023-03-13T13:25:38;97037.22;;;18.63;100.00
20156;BME280;10238;49.556;10.956;2023-03-13T13:28:33;97029.50;;;18.32;100.00
20156;BME280;10238;49.556;10.956;2023-03-13T13:31:53;97033.59;;;18.58;100.00
20156;BME280;10238;49.556;10.956;2023-03-13T13:34:54;97014.41;;;18.31;100.00
20156;BME280;10238;49.556;10.956;2023-03-13T13:37:43;97011.25;;;18.57;100.00
20156;BME280;10238;49.556;10.956;2023-03-13T13:40:36;97004.81;;;18.47;100.00
20156;BME280;10238;49.556;10.956;2023-03-13T13:43:34;96991.50;;;17.94;100.00
20156;BME280;10238;49.556;10.956;2023-03-13T13:46:24;96995.75;;;18.36;100.00
20156;BME280;10238;49.556;10.956;2023-03-13T13:49:15;96991.38;;;18.24;100.00
20156;BME280;10238;49.556;10.956;2023-03-13T13:55:43;96981.66;;;18.85;100.00
20156;BME280;10238;49.556;10.956;2023-03-13T13:58:32;96972.53;;;19.43;100.00
20156;BME280;10238;49.556;10.956;2023-03-13T14:01:25;96956.78;;;19.06;100.00
20156;BME280;10238;49.556;10.956;2023-03-13T14:04:16;96946.47;;;19.20;100.00
20156;BME280;10238;49.556;10.956;2023-03-13T14:07:06;96948.75;;;19.40;100.00
20156;BME280;10238;49.556;10.956;2023-03-13T14:10:13;96945.69;;;19.19;100.00
20156;BME280;10238;49.556;10.956;2023-03-13T14:13:14;96934.53;;;18.99;100.00
20156;BME280;10238;49.556;10.956;2023-03-13T14:16:19;96937.97;;;19.11;100.00
20156;BME280;10238;49.556;10.956;2023-03-13T14:19:21;96921.72;;;18.90;100.00
20156;BME280;10238;49.556;10.956;2023-03-13T14:22:11;96914.47;;;19.07;100.00
20156;BME280;10238;49.556;10.956;2023-03-13T14:25:02;96918.59;;;18.98;100.00
20156;BME280;10238;49.556;10.956;2023-03-13T14:27:51;96906.16;;;19.08;100.00
20156;BME280;10238;49.556;10.956;2023-03-13T14:30:44;96904.53;;;19.07;100.00
20156;BME280;10238;49.556;10.956;2023-03-13T14:33:32;96898.19;;;18.57;100.00
20156;BME280;10238;49.556;10.956;2023-03-13T14:36:20;96895.13;;;18.65;100.00
20156;BME280;10238;49.556;10.956;2023-03-13T14:39:16;96895.75;;;18.56;100.00
20156;BME280;10238;49.556;10.956;2023-03-13T14:42:08;96892.63;;;18.75;100.00
20156;BME280;10238;49.556;10.956;2023-03-13T14:44:57;96888.69;;;18.38;100.00
20156;BME280;10238;49.556;10.956;2023-03-13T14:47:48;96882.41;;;18.61;100.00
20156;BME280;10238;49.556;10.956;2023-03-13T14:50:36;96870.50;;;18.45;100.00
20156;BME280;10238;49.556;10.956;2023-03-13T14:53:25;96863.19;;;18.85;100.00